Historyczne dane pomiarowe

Dodano dane terminowe – wersja testowa.

Dane z okresu 1951-2019

Wersja bazy: 1.34 [2019-03-16, lista zmian], aktualizacja planowana na 2019-04-15

Dane meteo z obszaru Polski uzyskane na podstawie danych udostępnionych przez Instytut Meteorologii i Gospodarki Wodnej – Państwowy Instytut Badawczy.

 

Wybierz Datę:    

       

TemperaturaWilgotnośćWiatrCiśnienieOpadyŚniegCzas trwania zjawisk
 Stacja t tx tn tng RH VA  wxwx mslp ppp RRR   cm mm wxwxwxwxwxwxwx
1990-06-13 14.2 20.2 8.2 5.7 72.0- 6.0 0.0---- 0.0------------
1990-06-14 15.1 18.8 8.8 5.6 77.3- 6.3 0.0---- 0.1------------
1990-06-15 13.6 16.3 10.2 8.2 75.5- 7.0 0.3---- 0.0------------
1990-06-16 12.5 14.7 10.0 6.9 82.5- 8.0 1.3---- 0.0------------
1990-06-17 14.5 18.7 6.7 3.1 70.5- 5.3 1.7---- 0.0------------
1990-06-18 15.1 22.8 3.7 0.7 71.5- 3.7 0.7---- 0.0------------
1990-06-19 18.5 24.8 10.4 6.5 69.5- 2.7 1.7---- 0.0------------
1990-06-20 20.2 28.1 7.9 4.1 63.0- 3.0 0.0---- 9.7------------
1990-06-21 16.0 24.9 14.0 10.6 92.3- 8.0 1.0---- 2.2------------
1990-06-22 16.0 22.7 7.3 4.3 79.3- 6.7 1.0---- 2.7------------
1990-06-23 14.9 17.7 11.5 8.2 67.3- 3.7 2.0---- 0.6------------
1990-06-24 14.5 18.4 9.5 9.1 77.8- 1.0 1.7---- 3.6------------
1990-06-25 14.1 19.2 6.4 2.9 78.5- 8.0 0.0---- 0.0------------
1990-06-26 18.8 22.2 15.0 12.1 77.5- 5.0 2.3---- 0.0------------
1990-06-27 18.8 26.7 8.3 4.8 70.5- 1.7 0.3---- 0.0------------
1990-06-28 19.8 24.2 12.4 8.2 80.5- 6.0 0.7---- 2.9------------
1990-06-29 20.6 26.3 13.5 10.6 79.3- 2.7 0.0---- 7.6------------
1990-06-30 20.8 26.1 13.5 9.6 72.8- 4.0 1.3---- 0.0------------
1990-07-01 18.2 24.9 13.6 9.6 72.5- 4.7 1.0---- 0.2------------
1990-07-02 15.6 20.2 7.9 2.9 61.8- 4.3 2.7---- 0.0------------
1990-07-03 16.2 21.2 5.9 2.1 67.3- 4.0 0.7---- 0.6------------
1990-07-04 13.3 19.9 11.8 10.1 87.3- 6.7 0.0---- 0.0------------
1990-07-05 15.1 22.2 3.3 0.2 67.8- 4.3 3.0---- 0.4------------
1990-07-06 15.8 19.5 13.0 10.6 65.3- 5.0 4.3---- 0.6------------
1990-07-07 13.3 17.6 10.6 7.2 66.8- 6.3 4.7---- 0.0------------
1990-07-08 14.2 20.4 5.1 1.0 68.0- 1.3 2.0---- 1.0------------
1990-07-09 16.6 20.7 14.0 13.2 92.3- 5.0 3.7---- 5.3------------
1990-07-10 13.9 18.2 11.0 7.7 77.0- 7.7 2.3---- 2.2------------
1990-07-11 13.4 17.2 9.2 5.8 73.5- 5.3 2.0---- 0.0------------
1990-07-12 15.5 23.2 3.3 0.0 65.5- 1.0 1.3---- 0.0------------
339.8 ms

 

Źródłem pochodzenia danych jest Instytut Meteorologii i Gospodarki Wodnej – Państwowy Instytut Badawczy. Dane Instytutu Meteorologii i Gospodarki Wodnej – Państwowego Instytutu Badawczego zostały przetworzone.

Dane źródłowe można odnaleźć na stronie https://dane.imgw.pl